createdAt,value
2022-12-20T00:01:58.158Z,-0.90
2022-12-20T00:09:26.375Z,-1.00
2022-12-20T00:11:54.761Z,-1.00
2022-12-20T00:21:49.028Z,-1.00
2022-12-20T00:26:55.745Z,-1.10
2022-12-20T00:31:52.905Z,-1.10
2022-12-20T00:36:49.918Z,-1.10
2022-12-20T00:39:18.255Z,-1.10
2022-12-20T00:44:16.877Z,-1.10
2022-12-20T00:49:15.582Z,-1.00
2022-12-20T00:54:12.578Z,-1.10
2022-12-20T00:56:41.244Z,-1.10
2022-12-20T01:01:40.055Z,-1.00
2022-12-20T01:06:38.590Z,-1.00
2022-12-20T01:09:07.529Z,-1.00
2022-12-20T01:11:38.968Z,-1.40
2022-12-20T01:14:12.023Z,-0.90
2022-12-20T01:16:46.030Z,-0.90
2022-12-20T01:19:19.189Z,-0.90
2022-12-20T01:21:47.895Z,-1.90
2022-12-20T01:24:20.003Z,-1.00
2022-12-20T01:26:49.354Z,-0.90
2022-12-20T01:29:20.369Z,-1.00
2022-12-20T01:31:50.460Z,-1.10
2022-12-20T01:36:49.528Z,-1.10
2022-12-20T01:39:19.237Z,-1.20
2022-12-20T01:41:48.346Z,-1.20
2022-12-20T01:44:58.011Z,-1.10
2022-12-20T01:47:33.509Z,-1.20
2022-12-20T01:50:05.775Z,-1.20
2022-12-20T01:52:38.682Z,-0.10
2022-12-20T01:55:13.908Z,-1.30
2022-12-20T01:57:48.902Z,-1.30
2022-12-20T02:00:18.465Z,-1.40
2022-12-20T02:02:50.948Z,-1.20
2022-12-20T02:05:23.313Z,-1.30
2022-12-20T02:07:56.295Z,-1.30
2022-12-20T02:10:33.649Z,-1.30
2022-12-20T02:13:13.597Z,-1.30
2022-12-20T02:15:53.392Z,-1.30
2022-12-20T02:18:28.895Z,-1.30
2022-12-20T02:24:43.807Z,-1.20
2022-12-20T02:27:56.025Z,-1.30
2022-12-20T02:30:33.760Z,-1.20
2022-12-20T02:33:06.373Z,-1.20
2022-12-20T02:35:38.567Z,-1.20
2022-12-20T02:38:29.733Z,-1.20
2022-12-20T02:43:53.220Z,-1.20
2022-12-20T02:46:25.376Z,0.40
2022-12-20T02:48:57.845Z,-1.30
2022-12-20T02:51:31.507Z,-1.30
2022-12-20T02:54:01.510Z,-1.20
2022-12-20T02:56:38.481Z,-1.30
2022-12-20T02:59:15.027Z,-1.20
2022-12-20T03:01:51.239Z,-1.30
2022-12-20T03:04:24.850Z,-1.30
2022-12-20T03:07:02.827Z,-1.30
2022-12-20T03:12:03.233Z,-1.30
2022-12-20T03:14:34.334Z,-1.40
2022-12-20T03:17:07.315Z,-1.30
2022-12-20T03:22:04.577Z,-1.30
2022-12-20T03:24:33.730Z,-1.20
2022-12-20T03:34:30.492Z,-1.20
2022-12-20T03:36:58.975Z,-1.10
2022-12-20T03:44:26.571Z,-1.20
2022-12-20T03:46:55.745Z,-1.30
2022-12-20T03:49:24.062Z,-1.30
2022-12-20T03:51:54.797Z,-1.30
2022-12-20T03:54:24.329Z,-1.30
2022-12-20T03:59:46.143Z,-1.30
2022-12-20T04:02:17.328Z,-0.60
2022-12-20T04:07:17.591Z,0.90
2022-12-20T04:14:46.868Z,-1.30
2022-12-20T04:17:15.399Z,-1.40
2022-12-20T04:19:43.977Z,-1.40
2022-12-20T04:22:14.032Z,-1.40
2022-12-20T04:24:56.668Z,-1.40
2022-12-20T04:27:32.357Z,-1.30
2022-12-20T04:30:01.833Z,-1.40
2022-12-20T04:35:01.785Z,-1.30
2022-12-20T04:37:30.532Z,-1.30
2022-12-20T04:40:00.554Z,-1.30
2022-12-20T04:42:50.302Z,-1.40
2022-12-20T04:47:48.798Z,-1.40
2022-12-20T04:50:23.048Z,-1.40
2022-12-20T04:53:09.339Z,-1.30
2022-12-20T04:55:41.067Z,-1.30
2022-12-20T05:00:41.345Z,-1.30
2022-12-20T05:03:24.224Z,-1.20
2022-12-20T05:10:54.720Z,-1.10
2022-12-20T05:13:24.121Z,-1.10
2022-12-20T05:15:54.509Z,-1.10
2022-12-20T05:24:10.521Z,0.60
2022-12-20T05:27:01.260Z,-1.10
2022-12-20T05:31:59.367Z,-1.00
2022-12-20T05:34:28.972Z,0.60
2022-12-20T05:39:30.956Z,-1.00
2022-12-20T05:42:04.348Z,-1.00
2022-12-20T05:57:16.086Z,-1.00
2022-12-20T05:59:44.589Z,-1.00
2022-12-20T06:02:23.104Z,-1.00
2022-12-20T06:07:29.182Z,-1.10
2022-12-20T06:12:44.677Z,-0.90
2022-12-20T06:20:14.203Z,-1.00
2022-12-20T06:27:46.732Z,-1.00
2022-12-20T06:32:56.920Z,-0.90
2022-12-20T06:35:25.247Z,-0.90
2022-12-20T06:42:56.219Z,-0.80
2022-12-20T06:45:26.671Z,-0.80
2022-12-20T06:47:55.865Z,-0.80
2022-12-20T06:50:25.085Z,-0.70
2022-12-20T06:55:23.248Z,-0.70
2022-12-20T06:57:53.091Z,-0.70
2022-12-20T07:00:24.522Z,-0.70
2022-12-20T07:02:52.945Z,-0.70
2022-12-20T07:07:50.180Z,-0.70
2022-12-20T07:10:18.827Z,-0.70
2022-12-20T07:12:48.491Z,-0.80
2022-12-20T07:20:16.615Z,-0.80
2022-12-20T07:22:45.233Z,-0.80
2022-12-20T07:30:12.837Z,-0.70
2022-12-20T07:35:12.641Z,-0.60
2022-12-20T07:40:13.125Z,-0.50
2022-12-20T07:50:16.509Z,-0.50
2022-12-20T07:52:49.537Z,-0.50
2022-12-20T07:55:19.511Z,-0.50
2022-12-20T07:57:53.612Z,-0.50
2022-12-20T08:05:26.897Z,-0.40
2022-12-20T08:08:00.016Z,-0.40
2022-12-20T08:13:00.362Z,-0.30
2022-12-20T08:15:30.736Z,-0.30
2022-12-20T08:20:29.286Z,-0.30
2022-12-20T08:25:26.668Z,-0.30
2022-12-20T08:27:54.981Z,-0.30
2022-12-20T08:30:23.330Z,-0.30
2022-12-20T08:32:52.284Z,-0.30
2022-12-20T08:37:52.799Z,-0.20
2022-12-20T08:40:21.848Z,-0.20
2022-12-20T08:45:20.128Z,-0.10
2022-12-20T08:50:17.444Z,0.00
2022-12-20T08:52:45.788Z,0.10
2022-12-20T08:55:15.609Z,0.90
2022-12-20T08:57:43.917Z,0.10
2022-12-20T09:00:14.331Z,0.20
2022-12-20T09:02:43.437Z,0.20
2022-12-20T09:05:12.880Z,0.20
2022-12-20T09:07:42.118Z,0.30
2022-12-20T09:10:13.550Z,0.30
2022-12-20T09:12:43.579Z,0.30
2022-12-20T09:15:12.818Z,0.20
2022-12-20T09:17:41.438Z,0.30
2022-12-20T09:20:10.774Z,0.20
2022-12-20T09:22:39.865Z,0.20
2022-12-20T09:25:09.763Z,0.30
2022-12-20T09:30:10.868Z,0.30
2022-12-20T09:32:39.201Z,0.30
2022-12-20T09:40:09.323Z,0.30
2022-12-20T09:42:38.058Z,0.30
2022-12-20T09:45:16.765Z,0.30
2022-12-20T09:53:13.506Z,0.50
2022-12-20T09:55:57.632Z,0.60
2022-12-20T09:58:46.123Z,0.70
2022-12-20T10:01:25.298Z,0.90
2022-12-20T10:06:47.818Z,1.20
2022-12-20T10:09:39.624Z,1.40
2022-12-20T10:12:25.718Z,1.50
2022-12-20T10:15:16.117Z,1.70
2022-12-20T10:20:47.438Z,3.00
2022-12-20T10:23:32.814Z,1.70
2022-12-20T10:26:02.493Z,1.70
2022-12-20T10:28:36.353Z,1.70
2022-12-20T10:31:09.612Z,1.70
2022-12-20T10:33:39.358Z,1.60
2022-12-20T10:36:24.117Z,1.50
2022-12-20T10:38:55.330Z,1.50
2022-12-20T10:41:26.183Z,1.50
2022-12-20T10:44:01.408Z,1.50
2022-12-20T10:46:43.649Z,1.60
2022-12-20T10:49:32.141Z,1.60
2022-12-20T10:52:03.698Z,1.80
2022-12-20T10:54:37.180Z,1.80
2022-12-20T10:57:20.122Z,1.90
2022-12-20T10:59:54.102Z,2.00
2022-12-20T11:02:38.766Z,2.00
2022-12-20T11:05:25.623Z,2.10
2022-12-20T11:10:47.596Z,2.20
2022-12-20T11:13:32.499Z,2.40
2022-12-20T11:18:44.908Z,2.40
2022-12-20T11:21:32.536Z,2.40
2022-12-20T11:24:11.796Z,2.30
2022-12-20T11:27:09.231Z,2.30
2022-12-20T11:30:11.170Z,2.30
2022-12-20T11:33:10.046Z,2.30
2022-12-20T11:35:52.234Z,2.30
2022-12-20T11:38:41.546Z,2.20
2022-12-20T11:41:31.846Z,2.30
2022-12-20T11:44:26.132Z,2.20
2022-12-20T11:47:20.124Z,2.10
2022-12-20T11:50:14.639Z,2.20
2022-12-20T11:52:52.026Z,2.20
2022-12-20T11:55:29.797Z,2.20
2022-12-20T11:58:21.582Z,2.40
2022-12-20T12:00:57.159Z,2.10
2022-12-20T12:03:33.881Z,2.40
2022-12-20T12:06:10.526Z,2.40
2022-12-20T12:08:48.211Z,2.30
2022-12-20T12:12:04.618Z,2.10
2022-12-20T12:14:36.469Z,2.10
2022-12-20T12:19:49.559Z,2.20
2022-12-20T12:22:28.195Z,2.20
2022-12-20T12:25:04.421Z,2.20
2022-12-20T12:27:35.243Z,2.10
2022-12-20T12:30:03.619Z,2.00
2022-12-20T12:38:34.876Z,2.00
2022-12-20T12:41:35.614Z,1.90
2022-12-20T12:44:40.786Z,2.00
2022-12-20T12:47:20.845Z,2.10
2022-12-20T12:49:53.995Z,2.20
2022-12-20T12:52:43.948Z,2.10
2022-12-20T12:55:43.741Z,2.30
2022-12-20T12:58:32.253Z,2.40
2022-12-20T13:01:05.444Z,2.40
2022-12-20T13:07:21.952Z,2.40
2022-12-20T13:12:59.158Z,2.30
2022-12-20T13:18:29.310Z,2.30
2022-12-20T13:21:31.979Z,2.30
2022-12-20T13:24:42.685Z,2.20
2022-12-20T13:27:32.554Z,2.10
2022-12-20T13:30:27.254Z,2.00
2022-12-20T13:33:16.808Z,1.90
2022-12-20T13:36:37.851Z,1.90
2022-12-20T13:39:37.081Z,1.80
2022-12-20T13:42:23.771Z,1.80
2022-12-20T13:44:57.097Z,1.80
2022-12-20T13:47:47.039Z,1.90
2022-12-20T13:50:35.593Z,1.90
2022-12-20T13:53:08.237Z,1.90
2022-12-20T13:55:39.868Z,1.90
2022-12-20T13:58:15.434Z,1.90
2022-12-20T14:00:45.068Z,1.90
2022-12-20T14:03:24.230Z,1.90
2022-12-20T14:05:59.649Z,1.90
2022-12-20T14:08:34.797Z,1.80
2022-12-20T14:11:12.606Z,1.90
2022-12-20T14:16:15.987Z,1.80
2022-12-20T14:18:50.150Z,1.90
2022-12-20T14:21:20.523Z,1.90
2022-12-20T14:23:55.165Z,2.50
2022-12-20T14:26:28.211Z,2.00
2022-12-20T14:29:02.061Z,2.00
2022-12-20T14:31:42.264Z,2.00
2022-12-20T14:34:19.789Z,1.90
2022-12-20T14:36:50.954Z,1.80
2022-12-20T14:39:31.087Z,1.80
2022-12-20T14:42:02.344Z,1.70
2022-12-20T14:44:33.150Z,1.70
2022-12-20T14:47:06.659Z,1.70
2022-12-20T14:49:39.978Z,1.60
2022-12-20T14:52:16.052Z,1.60
2022-12-20T14:55:10.016Z,0.60
2022-12-20T14:57:48.743Z,1.60
2022-12-20T15:00:25.542Z,1.60
2022-12-20T15:03:04.994Z,1.50
2022-12-20T15:05:52.574Z,1.60
2022-12-20T15:08:27.643Z,1.60
2022-12-20T15:11:03.579Z,1.60
2022-12-20T15:13:36.434Z,0.40
2022-12-20T15:16:14.765Z,1.50
2022-12-20T15:18:43.504Z,2.40
2022-12-20T15:21:17.127Z,1.50
2022-12-20T15:23:51.690Z,1.50
2022-12-20T15:26:27.109Z,1.50
2022-12-20T15:28:56.409Z,1.50
2022-12-20T15:31:33.320Z,1.50
2022-12-20T15:34:05.418Z,1.80
2022-12-20T15:36:34.988Z,1.50
2022-12-20T15:39:13.269Z,1.40
2022-12-20T15:41:49.851Z,1.40
2022-12-20T15:44:22.237Z,1.50
2022-12-20T15:46:51.475Z,1.40
2022-12-20T15:49:23.404Z,1.40
2022-12-20T15:51:55.095Z,1.40
2022-12-20T15:54:28.284Z,1.30
2022-12-20T15:56:59.724Z,1.30
2022-12-20T16:02:25.382Z,1.30
2022-12-20T16:04:56.393Z,1.30
2022-12-20T16:07:25.432Z,1.30
2022-12-20T16:12:28.116Z,1.30
2022-12-20T16:14:56.967Z,1.30
2022-12-20T16:17:25.400Z,1.30
2022-12-20T16:19:53.808Z,1.30
2022-12-20T16:22:26.140Z,1.30
2022-12-20T16:27:24.495Z,1.30
2022-12-20T16:32:23.060Z,1.30
2022-12-20T16:34:52.695Z,1.30
2022-12-20T16:37:21.587Z,1.30
2022-12-20T16:39:49.897Z,1.30
2022-12-20T16:42:22.413Z,1.20
2022-12-20T16:44:55.072Z,1.30
2022-12-20T16:47:23.459Z,1.60
2022-12-20T16:49:53.772Z,1.30
2022-12-20T16:52:23.573Z,1.30
2022-12-20T16:54:52.493Z,1.30
2022-12-20T16:57:21.553Z,1.80
2022-12-20T16:59:50.311Z,1.20
2022-12-20T17:02:28.636Z,1.10
2022-12-20T17:04:57.743Z,1.10
2022-12-20T17:07:26.939Z,1.20
2022-12-20T17:10:11.083Z,1.20
2022-12-20T17:12:39.584Z,1.20
2022-12-20T17:15:17.249Z,1.20
2022-12-20T17:17:47.545Z,1.20
2022-12-20T17:20:17.450Z,1.30
2022-12-20T17:25:37.247Z,-0.20
2022-12-20T17:28:06.956Z,1.20
2022-12-20T17:33:05.610Z,1.20
2022-12-20T17:35:34.831Z,1.20
2022-12-20T17:38:03.129Z,1.20
2022-12-20T17:40:31.367Z,1.10
2022-12-20T17:42:59.700Z,1.20
2022-12-20T17:45:32.957Z,-0.20
2022-12-20T17:48:01.323Z,1.20
2022-12-20T17:50:30.991Z,1.10
2022-12-20T17:55:29.799Z,1.10
2022-12-20T17:57:58.064Z,1.10
2022-12-20T18:00:38.053Z,1.00
2022-12-20T18:05:41.642Z,1.00
2022-12-20T18:08:10.198Z,0.90
2022-12-20T18:10:38.719Z,0.90
2022-12-20T18:13:06.938Z,0.90
2022-12-20T18:15:35.220Z,0.90
2022-12-20T18:18:03.454Z,0.90
2022-12-20T18:23:01.932Z,1.10
2022-12-20T18:25:30.400Z,1.00
2022-12-20T18:27:58.670Z,1.10
2022-12-20T18:30:27.046Z,1.00
2022-12-20T18:32:55.315Z,1.10
2022-12-20T18:35:23.699Z,1.10
2022-12-20T18:40:22.344Z,1.10
2022-12-20T18:45:23.134Z,1.10
2022-12-20T18:47:51.373Z,1.20
2022-12-20T18:50:19.570Z,1.20
2022-12-20T18:52:47.807Z,1.20
2022-12-20T18:55:16.161Z,1.10
2022-12-20T18:57:45.727Z,1.20
2022-12-20T19:00:15.971Z,1.20
2022-12-20T19:02:44.380Z,1.20
2022-12-20T19:07:41.270Z,1.20
2022-12-20T19:10:10.756Z,1.20
2022-12-20T19:12:38.995Z,1.20
2022-12-20T19:15:09.729Z,0.20
2022-12-20T19:17:38.089Z,1.30
2022-12-20T19:20:08.169Z,1.20
2022-12-20T19:25:06.022Z,1.20
2022-12-20T19:27:34.328Z,1.20
2022-12-20T19:32:33.517Z,1.50
2022-12-20T19:37:50.511Z,1.20
2022-12-20T19:40:19.010Z,1.20
2022-12-20T19:47:53.819Z,1.20
2022-12-20T19:50:22.476Z,1.30
2022-12-20T19:52:53.387Z,1.20
2022-12-20T20:00:22.184Z,0.30
2022-12-20T20:02:51.951Z,1.10
2022-12-20T20:10:20.033Z,1.10
2022-12-20T20:17:47.112Z,1.10
2022-12-20T20:20:17.876Z,1.30
2022-12-20T20:27:44.325Z,1.10
2022-12-20T20:30:15.363Z,1.10
2022-12-20T20:37:47.430Z,1.10
2022-12-20T20:50:13.955Z,1.00
2022-12-20T20:57:42.237Z,1.10
2022-12-20T21:00:12.836Z,1.10
2022-12-20T21:08:02.241Z,1.10
2022-12-20T21:10:30.983Z,1.10
2022-12-20T21:15:31.198Z,1.10
2022-12-20T21:20:28.985Z,1.20
2022-12-20T21:22:58.296Z,1.10
2022-12-20T21:25:28.023Z,1.10
2022-12-20T21:27:57.674Z,1.10
2022-12-20T21:35:23.597Z,1.10
2022-12-20T21:42:52.718Z,1.10
2022-12-20T21:52:48.304Z,1.20
2022-12-20T22:00:20.034Z,1.30
2022-12-20T22:02:48.964Z,1.20
2022-12-20T22:05:17.666Z,1.20
2022-12-20T22:07:47.363Z,2.30
2022-12-20T22:17:43.696Z,1.20
2022-12-20T22:20:13.044Z,1.10
2022-12-20T22:25:11.641Z,1.20
2022-12-20T22:30:11.299Z,1.20
2022-12-20T22:35:10.579Z,1.20
2022-12-20T22:37:39.228Z,1.20
2022-12-20T22:40:09.701Z,1.20
2022-12-20T22:42:41.475Z,1.30
2022-12-20T22:45:11.523Z,1.30
2022-12-20T22:47:42.920Z,1.30
2022-12-20T22:50:13.912Z,1.20
2022-12-20T22:52:42.678Z,1.30
2022-12-20T22:55:11.741Z,1.20
2022-12-20T23:00:13.337Z,1.20
2022-12-20T23:02:42.591Z,1.20
2022-12-20T23:05:12.756Z,1.00
2022-12-20T23:07:41.432Z,1.30
2022-12-20T23:10:31.483Z,1.30
2022-12-20T23:21:09.485Z,1.20
2022-12-20T23:23:37.689Z,1.40
2022-12-20T23:26:13.581Z,1.30
2022-12-20T23:28:42.783Z,1.30
2022-12-20T23:31:12.364Z,1.30
2022-12-20T23:33:42.236Z,1.30
2022-12-20T23:36:13.215Z,1.30
2022-12-20T23:41:13.751Z,1.10
2022-12-20T23:46:14.187Z,1.00
2022-12-20T23:48:43.461Z,1.00
2022-12-20T23:51:13.701Z,1.10
2022-12-20T23:53:42.323Z,1.10
2022-12-20T23:56:14.908Z,1.10
2022-12-20T23:58:44.656Z,1.10
